Antonia, Louisiana
Current Conditions -  °F | °C
As of 1:53 PM on Thursday 20 Nov 2014 (Local Time) from KESF Reporting Station
Overcast Overcast  
Wind Chill: 22°   Ceiling: 7000
Heat Index: 22°   Visibility: 10mi
Dew Point: 10°   Wind: 3mph
Humidity: 47%   Direction: 190°S
Pressure: 30.15"   Gusts: NA
Location:  31.538°N, 92.3799°W
Report Text: KESF 201953Z AUTO 19003KT 10SM FEW046 OVC070 22/10 A3015 RMK AO2 SLP209 T02170100
Loading
Personal Weather Stations






























Interactive Weather Map New forecast layout! Learn more

10-Day Weather Forecast

Advertisements
Track Severe Weather on mobile